sensor_id;sensor_type;location;lat;lon;timestamp;P1;durP1;ratioP1;P2;durP2;ratioP2
52072;SDS011;38074;51.232;6.826;2022-12-07T00:01:23;1.77;;;0.70;;
52072;SDS011;38074;51.232;6.826;2022-12-07T00:08:47;4.13;;;0.80;;
52072;SDS011;38074;51.232;6.826;2022-12-07T00:16:13;1.67;;;0.85;;
52072;SDS011;38074;51.232;6.826;2022-12-07T00:23:31;1.25;;;0.60;;
52072;SDS011;38074;51.232;6.826;2022-12-07T00:30:47;1.67;;;0.67;;
52072;SDS011;38074;51.232;6.826;2022-12-07T00:38:03;1.47;;;0.53;;
52072;SDS011;38074;51.232;6.826;2022-12-07T00:45:18;1.07;;;0.60;;
52072;SDS011;38074;51.232;6.826;2022-12-07T00:52:34;1.00;;;0.47;;
52072;SDS011;38074;51.232;6.826;2022-12-07T00:59:49;1.60;;;0.50;;
52072;SDS011;38074;51.232;6.826;2022-12-07T01:07:05;0.93;;;0.60;;
52072;SDS011;38074;51.232;6.826;2022-12-07T01:14:20;1.07;;;0.50;;
52072;SDS011;38074;51.232;6.826;2022-12-07T01:21:36;1.47;;;0.67;;
52072;SDS011;38074;51.232;6.826;2022-12-07T01:28:53;1.43;;;0.53;;
52072;SDS011;38074;51.232;6.826;2022-12-07T01:51:25;0.93;;;0.30;;
52072;SDS011;38074;51.232;6.826;2022-12-07T01:58:42;0.70;;;0.50;;
52072;SDS011;38074;51.232;6.826;2022-12-07T02:05:59;0.60;;;0.40;;
52072;SDS011;38074;51.232;6.826;2022-12-07T02:13:16;1.27;;;0.40;;
52072;SDS011;38074;51.232;6.826;2022-12-07T02:20:57;0.68;;;0.50;;
52072;SDS011;38074;51.232;6.826;2022-12-07T02:36:02;1.50;;;0.70;;
52072;SDS011;38074;51.232;6.826;2022-12-07T02:43:24;0.50;;;0.38;;
52072;SDS011;38074;51.232;6.826;2022-12-07T02:50:47;0.63;;;0.50;;
52072;SDS011;38074;51.232;6.826;2022-12-07T03:20:51;1.15;;;0.30;;
52072;SDS011;38074;51.232;6.826;2022-12-07T03:28:09;0.55;;;0.40;;
52072;SDS011;38074;51.232;6.826;2022-12-07T03:35:31;0.68;;;0.40;;
52072;SDS011;38074;51.232;6.826;2022-12-07T03:43:05;0.82;;;0.38;;
52072;SDS011;38074;51.232;6.826;2022-12-07T03:50:29;0.40;;;0.30;;
52072;SDS011;38074;51.232;6.826;2022-12-07T03:57:53;0.45;;;0.35;;
52072;SDS011;38074;51.232;6.826;2022-12-07T04:05:11;1.17;;;0.50;;
52072;SDS011;38074;51.232;6.826;2022-12-07T04:12:27;1.00;;;0.40;;
52072;SDS011;38074;51.232;6.826;2022-12-07T04:19:42;0.97;;;0.50;;
52072;SDS011;38074;51.232;6.826;2022-12-07T04:26:58;0.80;;;0.30;;
52072;SDS011;38074;51.232;6.826;2022-12-07T04:34:13;0.70;;;0.40;;
52072;SDS011;38074;51.232;6.826;2022-12-07T04:41:29;1.45;;;0.30;;
52072;SDS011;38074;51.232;6.826;2022-12-07T04:48:45;0.53;;;0.20;;
52072;SDS011;38074;51.232;6.826;2022-12-07T04:56:02;1.13;;;0.40;;
52072;SDS011;38074;51.232;6.826;2022-12-07T05:03:18;0.50;;;0.30;;
52072;SDS011;38074;51.232;6.826;2022-12-07T05:10:33;1.37;;;0.60;;
52072;SDS011;38074;51.232;6.826;2022-12-07T05:17:49;0.30;;;0.20;;
52072;SDS011;38074;51.232;6.826;2022-12-07T05:25:04;0.50;;;0.23;;
52072;SDS011;38074;51.232;6.826;2022-12-07T05:32:20;0.40;;;0.30;;
52072;SDS011;38074;51.232;6.826;2022-12-07T05:39:36;0.30;;;0.30;;
52072;SDS011;38074;51.232;6.826;2022-12-07T05:46:55;1.88;;;0.20;;
52072;SDS011;38074;51.232;6.826;2022-12-07T05:54:11;0.90;;;0.40;;
52072;SDS011;38074;51.232;6.826;2022-12-07T06:01:26;0.70;;;0.30;;
52072;SDS011;38074;51.232;6.826;2022-12-07T06:08:42;1.05;;;0.30;;
52072;SDS011;38074;51.232;6.826;2022-12-07T06:15:58;3.67;;;0.60;;
52072;SDS011;38074;51.232;6.826;2022-12-07T06:23:13;5.20;;;0.80;;
52072;SDS011;38074;51.232;6.826;2022-12-07T06:30:29;53.37;;;14.90;;
52072;SDS011;38074;51.232;6.826;2022-12-07T06:37:44;23.83;;;6.40;;
52072;SDS011;38074;51.232;6.826;2022-12-07T06:45:00;15.43;;;3.13;;
52072;SDS011;38074;51.232;6.826;2022-12-07T06:52:15;13.03;;;2.83;;
52072;SDS011;38074;51.232;6.826;2022-12-07T06:59:31;9.43;;;2.37;;
52072;SDS011;38074;51.232;6.826;2022-12-07T07:06:46;9.00;;;2.60;;
52072;SDS011;38074;51.232;6.826;2022-12-07T07:14:02;10.47;;;2.70;;
52072;SDS011;38074;51.232;6.826;2022-12-07T07:21:17;6.50;;;2.00;;
52072;SDS011;38074;51.232;6.826;2022-12-07T07:28:33;6.60;;;1.70;;
52072;SDS011;38074;51.232;6.826;2022-12-07T07:35:48;7.40;;;1.77;;
52072;SDS011;38074;51.232;6.826;2022-12-07T07:43:04;8.13;;;1.63;;
52072;SDS011;38074;51.232;6.826;2022-12-07T07:50:20;5.70;;;1.00;;
52072;SDS011;38074;51.232;6.826;2022-12-07T07:57:37;5.65;;;1.40;;
52072;SDS011;38074;51.232;6.826;2022-12-07T08:04:54;5.35;;;0.90;;
52072;SDS011;38074;51.232;6.826;2022-12-07T08:12:10;4.65;;;1.27;;
52072;SDS011;38074;51.232;6.826;2022-12-07T08:19:25;4.13;;;1.07;;
52072;SDS011;38074;51.232;6.826;2022-12-07T08:26:41;5.55;;;1.20;;
52072;SDS011;38074;51.232;6.826;2022-12-07T08:33:57;3.10;;;0.95;;
52072;SDS011;38074;51.232;6.826;2022-12-07T08:41:12;4.60;;;1.00;;
52072;SDS011;38074;51.232;6.826;2022-12-07T08:48:28;5.23;;;1.03;;
52072;SDS011;38074;51.232;6.826;2022-12-07T08:55:45;1.85;;;0.90;;
52072;SDS011;38074;51.232;6.826;2022-12-07T09:03:01;6.30;;;1.40;;
52072;SDS011;38074;51.232;6.826;2022-12-07T09:10:17;3.40;;;1.00;;
52072;SDS011;38074;51.232;6.826;2022-12-07T09:17:33;4.00;;;1.00;;
52072;SDS011;38074;51.232;6.826;2022-12-07T09:32:06;4.18;;;1.10;;
52072;SDS011;38074;51.232;6.826;2022-12-07T09:39:21;3.37;;;0.77;;
52072;SDS011;38074;51.232;6.826;2022-12-07T09:46:38;4.30;;;0.75;;
52072;SDS011;38074;51.232;6.826;2022-12-07T09:53:56;3.58;;;1.00;;
52072;SDS011;38074;51.232;6.826;2022-12-07T10:08:30;3.53;;;0.60;;
52072;SDS011;38074;51.232;6.826;2022-12-07T10:15:47;1.20;;;0.50;;
52072;SDS011;38074;51.232;6.826;2022-12-07T10:23:05;1.73;;;0.77;;
52072;SDS011;38074;51.232;6.826;2022-12-07T10:30:30;3.83;;;0.80;;
52072;SDS011;38074;51.232;6.826;2022-12-07T10:37:47;4.97;;;0.60;;
52072;SDS011;38074;51.232;6.826;2022-12-07T10:45:14;2.30;;;0.80;;
52072;SDS011;38074;51.232;6.826;2022-12-07T10:52:44;3.95;;;1.00;;
52072;SDS011;38074;51.232;6.826;2022-12-07T11:00:23;4.13;;;1.30;;
52072;SDS011;38074;51.232;6.826;2022-12-07T11:07:47;3.00;;;0.95;;
52072;SDS011;38074;51.232;6.826;2022-12-07T11:15:17;5.25;;;1.33;;
52072;SDS011;38074;51.232;6.826;2022-12-07T11:30:10;1.75;;;0.80;;
52072;SDS011;38074;51.232;6.826;2022-12-07T11:37:31;2.47;;;0.80;;
52072;SDS011;38074;51.232;6.826;2022-12-07T11:44:53;3.03;;;0.80;;
52072;SDS011;38074;51.232;6.826;2022-12-07T11:52:18;1.50;;;0.60;;
52072;SDS011;38074;51.232;6.826;2022-12-07T11:59:41;1.92;;;0.50;;
52072;SDS011;38074;51.232;6.826;2022-12-07T12:07:05;1.75;;;0.60;;
52072;SDS011;38074;51.232;6.826;2022-12-07T12:14:29;2.22;;;0.50;;
52072;SDS011;38074;51.232;6.826;2022-12-07T12:21:54;2.72;;;0.52;;
52072;SDS011;38074;51.232;6.826;2022-12-07T12:29:34;2.45;;;0.55;;
52072;SDS011;38074;51.232;6.826;2022-12-07T12:36:52;2.63;;;1.20;;
52072;SDS011;38074;51.232;6.826;2022-12-07T12:51:36;13.63;;;4.30;;
52072;SDS011;38074;51.232;6.826;2022-12-07T12:59:18;9.82;;;3.83;;
52072;SDS011;38074;51.232;6.826;2022-12-07T13:06:37;14.82;;;4.40;;
52072;SDS011;38074;51.232;6.826;2022-12-07T13:13:56;15.00;;;4.63;;
52072;SDS011;38074;51.232;6.826;2022-12-07T13:21:46;9.77;;;4.25;;
52072;SDS011;38074;51.232;6.826;2022-12-07T13:29:05;14.25;;;4.18;;
52072;SDS011;38074;51.232;6.826;2022-12-07T13:43:53;10.13;;;3.75;;
52072;SDS011;38074;51.232;6.826;2022-12-07T13:51:22;8.30;;;3.20;;
52072;SDS011;38074;51.232;6.826;2022-12-07T13:58:40;8.20;;;3.10;;
52072;SDS011;38074;51.232;6.826;2022-12-07T14:06:03;11.57;;;2.97;;
52072;SDS011;38074;51.232;6.826;2022-12-07T14:13:27;7.18;;;2.75;;
52072;SDS011;38074;51.232;6.826;2022-12-07T14:20:43;9.15;;;1.75;;
52072;SDS011;38074;51.232;6.826;2022-12-07T14:27:59;6.80;;;2.10;;
52072;SDS011;38074;51.232;6.826;2022-12-07T14:35:16;7.33;;;1.93;;
52072;SDS011;38074;51.232;6.826;2022-12-07T14:42:33;4.53;;;1.63;;
52072;SDS011;38074;51.232;6.826;2022-12-07T14:49:49;7.83;;;1.70;;
52072;SDS011;38074;51.232;6.826;2022-12-07T14:57:06;3.50;;;1.20;;
52072;SDS011;38074;51.232;6.826;2022-12-07T15:04:23;5.07;;;1.50;;
52072;SDS011;38074;51.232;6.826;2022-12-07T15:11:39;2.63;;;1.00;;
52072;SDS011;38074;51.232;6.826;2022-12-07T15:18:55;4.53;;;1.27;;
52072;SDS011;38074;51.232;6.826;2022-12-07T15:26:10;3.53;;;1.27;;
52072;SDS011;38074;51.232;6.826;2022-12-07T15:33:26;2.73;;;1.07;;
52072;SDS011;38074;51.232;6.826;2022-12-07T15:40:42;1.73;;;0.80;;
52072;SDS011;38074;51.232;6.826;2022-12-07T15:48:01;2.60;;;1.13;;
52072;SDS011;38074;51.232;6.826;2022-12-07T15:55:16;3.27;;;1.30;;
52072;SDS011;38074;51.232;6.826;2022-12-07T16:02:32;2.60;;;0.97;;
52072;SDS011;38074;51.232;6.826;2022-12-07T16:09:47;1.70;;;0.60;;
52072;SDS011;38074;51.232;6.826;2022-12-07T16:17:04;2.17;;;0.50;;
52072;SDS011;38074;51.232;6.826;2022-12-07T16:24:21;2.67;;;0.70;;
52072;SDS011;38074;51.232;6.826;2022-12-07T16:31:37;1.50;;;0.50;;
52072;SDS011;38074;51.232;6.826;2022-12-07T16:38:53;1.52;;;0.60;;
52072;SDS011;38074;51.232;6.826;2022-12-07T16:46:09;1.90;;;0.60;;
52072;SDS011;38074;51.232;6.826;2022-12-07T16:53:24;1.65;;;0.50;;
52072;SDS011;38074;51.232;6.826;2022-12-07T17:00:40;1.37;;;0.47;;
52072;SDS011;38074;51.232;6.826;2022-12-07T17:07:56;1.52;;;0.60;;
52072;SDS011;38074;51.232;6.826;2022-12-07T17:15:12;1.98;;;0.50;;
52072;SDS011;38074;51.232;6.826;2022-12-07T17:22:31;2.13;;;0.57;;
52072;SDS011;38074;51.232;6.826;2022-12-07T17:29:46;1.20;;;0.47;;
52072;SDS011;38074;51.232;6.826;2022-12-07T17:37:02;2.17;;;0.60;;
52072;SDS011;38074;51.232;6.826;2022-12-07T17:44:18;0.85;;;0.40;;
52072;SDS011;38074;51.232;6.826;2022-12-07T17:51:35;1.00;;;0.50;;
52072;SDS011;38074;51.232;6.826;2022-12-07T17:59:10;1.70;;;0.90;;
52072;SDS011;38074;51.232;6.826;2022-12-07T18:06:26;1.48;;;0.50;;
52072;SDS011;38074;51.232;6.826;2022-12-07T18:13:42;0.90;;;0.40;;
52072;SDS011;38074;51.232;6.826;2022-12-07T18:20:57;0.60;;;0.40;;
52072;SDS011;38074;51.232;6.826;2022-12-07T18:28:15;1.38;;;0.57;;
52072;SDS011;38074;51.232;6.826;2022-12-07T18:35:31;1.25;;;0.60;;
52072;SDS011;38074;51.232;6.826;2022-12-07T18:42:48;1.07;;;0.43;;
52072;SDS011;38074;51.232;6.826;2022-12-07T18:50:04;1.30;;;0.57;;
52072;SDS011;38074;51.232;6.826;2022-12-07T18:57:20;1.15;;;0.60;;
52072;SDS011;38074;51.232;6.826;2022-12-07T19:04:35;2.10;;;0.53;;
52072;SDS011;38074;51.232;6.826;2022-12-07T19:11:51;2.40;;;0.50;;
52072;SDS011;38074;51.232;6.826;2022-12-07T19:19:06;0.90;;;0.43;;
52072;SDS011;38074;51.232;6.826;2022-12-07T19:26:22;0.83;;;0.40;;
52072;SDS011;38074;51.232;6.826;2022-12-07T19:33:37;1.10;;;0.40;;
52072;SDS011;38074;51.232;6.826;2022-12-07T19:40:53;0.60;;;0.30;;
52072;SDS011;38074;51.232;6.826;2022-12-07T19:48:09;0.87;;;0.50;;
52072;SDS011;38074;51.232;6.826;2022-12-07T19:55:24;0.80;;;0.50;;
52072;SDS011;38074;51.232;6.826;2022-12-07T20:02:40;0.97;;;0.40;;
52072;SDS011;38074;51.232;6.826;2022-12-07T20:09:55;0.90;;;0.50;;
52072;SDS011;38074;51.232;6.826;2022-12-07T20:17:11;0.60;;;0.40;;
52072;SDS011;38074;51.232;6.826;2022-12-07T20:24:26;1.13;;;0.60;;
52072;SDS011;38074;51.232;6.826;2022-12-07T20:31:42;1.77;;;0.73;;
52072;SDS011;38074;51.232;6.826;2022-12-07T20:38:59;1.20;;;0.47;;
52072;SDS011;38074;51.232;6.826;2022-12-07T20:46:15;2.60;;;0.43;;
52072;SDS011;38074;51.232;6.826;2022-12-07T20:53:30;0.97;;;0.47;;
52072;SDS011;38074;51.232;6.826;2022-12-07T21:00:46;1.38;;;0.40;;
52072;SDS011;38074;51.232;6.826;2022-12-07T21:08:04;0.93;;;0.40;;
52072;SDS011;38074;51.232;6.826;2022-12-07T21:15:19;1.53;;;0.60;;
52072;SDS011;38074;51.232;6.826;2022-12-07T21:22:35;1.13;;;0.60;;
52072;SDS011;38074;51.232;6.826;2022-12-07T21:29:51;1.45;;;0.60;;
52072;SDS011;38074;51.232;6.826;2022-12-07T21:37:06;0.83;;;0.60;;
52072;SDS011;38074;51.232;6.826;2022-12-07T21:44:22;1.40;;;0.63;;
52072;SDS011;38074;51.232;6.826;2022-12-07T21:51:38;2.30;;;0.80;;
52072;SDS011;38074;51.232;6.826;2022-12-07T21:58:57;1.45;;;0.60;;
52072;SDS011;38074;51.232;6.826;2022-12-07T22:06:15;1.08;;;0.63;;
52072;SDS011;38074;51.232;6.826;2022-12-07T22:13:32;1.70;;;0.65;;
52072;SDS011;38074;51.232;6.826;2022-12-07T22:21:06;1.33;;;0.70;;
52072;SDS011;38074;51.232;6.826;2022-12-07T22:28:22;1.90;;;0.70;;
52072;SDS011;38074;51.232;6.826;2022-12-07T22:35:37;2.50;;;0.85;;
52072;SDS011;38074;51.232;6.826;2022-12-07T22:42:53;1.57;;;0.57;;
52072;SDS011;38074;51.232;6.826;2022-12-07T22:50:09;1.57;;;0.50;;
52072;SDS011;38074;51.232;6.826;2022-12-07T22:57:24;1.83;;;0.63;;
52072;SDS011;38074;51.232;6.826;2022-12-07T23:04:40;0.83;;;0.53;;
52072;SDS011;38074;51.232;6.826;2022-12-07T23:11:55;1.23;;;0.60;;
52072;SDS011;38074;51.232;6.826;2022-12-07T23:19:30;1.45;;;0.68;;
52072;SDS011;38074;51.232;6.826;2022-12-07T23:26:45;3.08;;;0.70;;
52072;SDS011;38074;51.232;6.826;2022-12-07T23:34:01;1.15;;;0.63;;
52072;SDS011;38074;51.232;6.826;2022-12-07T23:41:18;0.52;;;0.35;;
52072;SDS011;38074;51.232;6.826;2022-12-07T23:48:38;1.00;;;0.40;;
52072;SDS011;38074;51.232;6.826;2022-12-07T23:55:54;1.60;;;0.68;;
